createdAt,value
2022-07-30T00:00:28.203Z,3.83
2022-07-30T00:02:56.398Z,4.03
2022-07-30T00:05:26.253Z,4.43
2022-07-30T00:07:54.368Z,3.58
2022-07-30T00:10:23.441Z,3.47
2022-07-30T00:12:51.862Z,3.65
2022-07-30T00:15:20.071Z,3.80
2022-07-30T00:17:49.318Z,3.78
2022-07-30T00:20:18.624Z,4.53
2022-07-30T00:22:48.401Z,3.83
2022-07-30T00:25:19.147Z,3.63
2022-07-30T00:27:47.603Z,3.72
2022-07-30T00:30:16.591Z,3.92
2022-07-30T00:32:45.644Z,3.45
2022-07-30T00:35:14.471Z,3.72
2022-07-30T00:37:42.694Z,4.25
2022-07-30T00:40:12.611Z,4.00
2022-07-30T00:42:42.640Z,4.03
2022-07-30T00:45:12.462Z,4.53
2022-07-30T00:47:41.261Z,4.20
2022-07-30T00:50:12.154Z,4.47
2022-07-30T00:52:41.175Z,4.00
2022-07-30T00:55:14.138Z,4.50
2022-07-30T00:57:43.932Z,4.18
2022-07-30T01:00:16.103Z,3.80
2022-07-30T01:02:44.952Z,4.13
2022-07-30T01:05:13.405Z,4.53
2022-07-30T01:07:41.763Z,3.80
2022-07-30T01:10:14.026Z,4.60
2022-07-30T01:12:43.478Z,4.60
2022-07-30T01:15:12.874Z,4.05
2022-07-30T01:17:41.133Z,4.18
2022-07-30T01:20:12.651Z,3.90
2022-07-30T01:22:56.747Z,4.35
2022-07-30T01:25:54.540Z,4.15
2022-07-30T01:28:27.751Z,4.68
2022-07-30T01:30:57.615Z,4.10
2022-07-30T01:33:27.858Z,4.50
2022-07-30T01:35:58.751Z,3.88
2022-07-30T01:38:34.991Z,4.30
2022-07-30T01:41:06.480Z,4.25
2022-07-30T01:43:37.584Z,4.47
2022-07-30T01:46:07.274Z,4.20
2022-07-30T01:48:38.332Z,4.60
2022-07-30T01:51:07.933Z,4.47
2022-07-30T01:53:39.682Z,4.70
2022-07-30T01:56:11.500Z,4.53
2022-07-30T01:58:41.790Z,4.38
2022-07-30T02:01:10.107Z,4.88
2022-07-30T02:03:39.143Z,4.82
2022-07-30T02:06:12.376Z,4.20
2022-07-30T02:08:43.056Z,5.00
2022-07-30T02:11:16.561Z,4.90
2022-07-30T02:13:51.815Z,4.95
2022-07-30T02:16:28.736Z,4.88
2022-07-30T02:19:06.190Z,4.80
2022-07-30T02:21:40.060Z,4.68
2022-07-30T02:24:27.108Z,5.05
2022-07-30T02:27:00.984Z,5.00
2022-07-30T02:29:33.930Z,4.88
2022-07-30T02:32:06.246Z,5.10
2022-07-30T02:34:38.521Z,5.00
2022-07-30T02:37:08.674Z,4.97
2022-07-30T02:39:38.741Z,4.80
2022-07-30T02:42:11.218Z,4.60
2022-07-30T02:44:41.948Z,5.30
2022-07-30T02:47:11.993Z,4.80
2022-07-30T02:49:41.871Z,5.20
2022-07-30T02:52:13.716Z,5.65
2022-07-30T02:54:44.320Z,5.60
2022-07-30T02:57:16.186Z,5.75
2022-07-30T02:59:45.956Z,5.43
2022-07-30T03:02:16.303Z,5.07
2022-07-30T03:04:45.971Z,5.13
2022-07-30T03:07:18.390Z,4.95
2022-07-30T03:09:50.983Z,5.03
2022-07-30T03:12:24.670Z,5.50
2022-07-30T03:14:54.023Z,5.65
2022-07-30T03:17:25.200Z,5.25
2022-07-30T03:19:56.240Z,5.82
2022-07-30T03:22:30.056Z,5.63
2022-07-30T03:25:03.155Z,5.68
2022-07-30T03:27:33.974Z,5.40
2022-07-30T03:30:03.723Z,5.35
2022-07-30T03:32:33.748Z,5.43
2022-07-30T03:35:06.402Z,5.30
2022-07-30T03:37:38.352Z,5.10
2022-07-30T03:40:08.147Z,5.60
2022-07-30T03:42:38.296Z,5.40
2022-07-30T03:45:08.356Z,5.30
2022-07-30T03:47:42.804Z,5.53
2022-07-30T03:50:12.795Z,4.90
2022-07-30T03:52:42.561Z,5.47
2022-07-30T03:55:13.223Z,5.72
2022-07-30T03:57:43.002Z,5.80
2022-07-30T04:00:15.864Z,5.68
2022-07-30T04:02:44.784Z,6.18
2022-07-30T04:05:13.301Z,6.30
2022-07-30T04:07:45.268Z,5.47
2022-07-30T04:10:14.584Z,5.32
2022-07-30T04:12:44.695Z,6.07
2022-07-30T04:16:37.424Z,6.38
2022-07-30T04:18:06.112Z,6.07
2022-07-30T04:20:41.202Z,6.20
2022-07-30T04:23:11.483Z,5.93
2022-07-30T04:25:41.356Z,6.80
2022-07-30T04:28:11.852Z,5.75
2022-07-30T04:30:40.300Z,6.03
2022-07-30T04:33:09.921Z,6.10
2022-07-30T04:35:51.557Z,5.85
2022-07-30T04:38:21.017Z,6.43
2022-07-30T04:40:49.616Z,6.03
2022-07-30T04:43:19.161Z,5.97
2022-07-30T04:45:47.491Z,5.68
2022-07-30T04:48:15.728Z,6.30
2022-07-30T04:50:47.237Z,6.22
2022-07-30T04:53:16.898Z,5.70
2022-07-30T04:55:48.318Z,6.22
2022-07-30T04:58:21.307Z,6.10
2022-07-30T05:00:52.496Z,6.07
2022-07-30T05:03:22.801Z,5.70
2022-07-30T05:05:57.279Z,5.93
2022-07-30T05:08:27.273Z,6.30
2022-07-30T05:10:56.045Z,6.22
2022-07-30T05:13:27.524Z,5.35
2022-07-30T05:16:03.138Z,5.95
2022-07-30T05:18:31.307Z,6.20
2022-07-30T05:20:59.393Z,6.68
2022-07-30T05:23:27.564Z,6.78
2022-07-30T05:25:55.848Z,6.30
2022-07-30T05:28:26.771Z,7.35
2022-07-30T05:30:56.171Z,6.18
2022-07-30T05:33:40.857Z,6.38
2022-07-30T05:36:09.723Z,5.13
2022-07-30T05:38:37.856Z,5.68
2022-07-30T05:41:05.939Z,6.43
2022-07-30T05:43:57.003Z,7.13
2022-07-30T05:46:25.474Z,5.90
2022-07-30T05:48:53.634Z,5.75
2022-07-30T05:51:22.455Z,6.15
2022-07-30T05:53:51.452Z,5.20
2022-07-30T05:56:19.615Z,5.70
2022-07-30T05:58:48.114Z,6.07
2022-07-30T06:01:17.595Z,6.38
2022-07-30T06:03:45.819Z,5.78
2022-07-30T06:06:14.330Z,6.47
2022-07-30T06:08:44.614Z,7.43
2022-07-30T06:11:13.083Z,5.78
2022-07-30T06:13:41.256Z,5.93
2022-07-30T06:16:09.439Z,5.80
2022-07-30T06:18:38.987Z,5.65
2022-07-30T06:21:07.359Z,5.70
2022-07-30T06:23:35.475Z,6.47
2022-07-30T06:26:03.602Z,5.40
2022-07-30T06:28:39.645Z,5.70
2022-07-30T06:31:08.264Z,6.28
2022-07-30T06:33:36.294Z,6.97
2022-07-30T06:36:06.006Z,6.35
2022-07-30T06:38:34.645Z,6.20
2022-07-30T06:41:04.620Z,5.70
2022-07-30T06:43:32.877Z,6.13
2022-07-30T06:46:01.176Z,6.32
2022-07-30T06:48:32.288Z,6.05
2022-07-30T06:51:00.415Z,6.40
2022-07-30T06:53:30.074Z,6.20
2022-07-30T06:55:58.422Z,5.90
2022-07-30T06:58:29.360Z,6.65
2022-07-30T07:00:57.775Z,6.97
2022-07-30T07:03:40.164Z,5.43
2022-07-30T07:06:08.823Z,6.00
2022-07-30T07:08:39.385Z,5.72
2022-07-30T07:11:07.655Z,5.93
2022-07-30T07:13:35.724Z,5.88
2022-07-30T07:16:04.248Z,6.25
2022-07-30T07:18:45.536Z,5.78
2022-07-30T07:21:13.655Z,5.75
2022-07-30T07:23:42.509Z,6.45
2022-07-30T07:26:12.394Z,8.23
2022-07-30T07:28:41.413Z,6.30
2022-07-30T07:31:10.275Z,6.07
2022-07-30T07:33:39.566Z,6.22
2022-07-30T07:36:09.321Z,6.10
2022-07-30T07:38:37.944Z,5.85
2022-07-30T07:41:06.728Z,8.43
2022-07-30T07:43:35.218Z,6.85
2022-07-30T07:46:03.477Z,9.13
2022-07-30T07:48:31.660Z,7.13
2022-07-30T07:51:00.721Z,6.93
2022-07-30T07:53:30.467Z,5.97
2022-07-30T07:55:59.827Z,6.30
2022-07-30T07:58:29.499Z,5.85
2022-07-30T08:00:59.264Z,6.60
2022-07-30T08:03:27.435Z,6.10
2022-07-30T08:06:05.494Z,6.13
2022-07-30T08:08:37.294Z,6.47
2022-07-30T08:11:07.613Z,6.90
2022-07-30T08:13:51.520Z,6.68
2022-07-30T08:16:21.287Z,6.35
2022-07-30T08:18:49.691Z,6.28
2022-07-30T08:21:17.888Z,5.53
2022-07-30T08:23:48.021Z,5.35
2022-07-30T08:26:16.139Z,6.70
2022-07-30T08:28:45.846Z,4.75
2022-07-30T08:31:14.485Z,4.90
2022-07-30T08:33:42.605Z,6.18
2022-07-30T08:36:10.735Z,8.25
2022-07-30T08:38:39.907Z,5.13
2022-07-30T08:41:10.218Z,6.65
2022-07-30T08:43:38.647Z,5.60
2022-07-30T08:46:11.203Z,5.22
2022-07-30T08:48:40.452Z,5.07
2022-07-30T08:51:09.033Z,4.80
2022-07-30T08:53:37.354Z,4.93
2022-07-30T08:56:07.788Z,5.10
2022-07-30T08:58:38.399Z,5.53
2022-07-30T09:01:07.676Z,5.63
2022-07-30T09:03:44.070Z,4.57
2022-07-30T09:06:13.347Z,4.97
2022-07-30T09:08:42.225Z,4.28
2022-07-30T09:11:10.341Z,4.53
2022-07-30T09:13:41.825Z,4.32
2022-07-30T09:16:21.677Z,4.97
2022-07-30T09:18:50.574Z,4.43
2022-07-30T09:21:22.356Z,4.60
2022-07-30T09:23:58.035Z,3.92
2022-07-30T09:26:26.718Z,5.40
2022-07-30T09:28:57.120Z,4.40
2022-07-30T09:31:25.316Z,4.43
2022-07-30T09:33:53.470Z,4.70
2022-07-30T09:36:22.197Z,7.00
2022-07-30T09:38:51.992Z,5.05
2022-07-30T09:41:39.339Z,3.95
2022-07-30T09:44:09.609Z,4.40
2022-07-30T09:46:47.299Z,4.30
2022-07-30T09:49:17.085Z,4.13
2022-07-30T09:51:56.100Z,3.90
2022-07-30T09:54:50.721Z,4.00
2022-07-30T09:57:26.422Z,3.75
2022-07-30T09:59:59.988Z,4.65
2022-07-30T10:02:32.997Z,3.58
2022-07-30T10:05:14.324Z,4.22
2022-07-30T10:07:51.120Z,4.10
2022-07-30T10:10:25.670Z,3.30
2022-07-30T10:12:58.319Z,3.83
2022-07-30T10:15:30.941Z,4.38
2022-07-30T10:18:02.180Z,4.60
2022-07-30T10:20:35.373Z,3.78
2022-07-30T10:23:08.316Z,4.28
2022-07-30T10:25:49.496Z,4.05
2022-07-30T10:28:23.180Z,4.03
2022-07-30T10:30:55.363Z,4.60
2022-07-30T10:33:35.262Z,4.05
2022-07-30T10:36:06.374Z,4.18
2022-07-30T10:38:41.627Z,3.65
2022-07-30T10:41:22.121Z,3.25
2022-07-30T10:44:24.892Z,3.88
2022-07-30T10:47:07.173Z,3.70
2022-07-30T10:49:41.187Z,4.95
2022-07-30T10:52:12.736Z,3.58
2022-07-30T10:54:44.585Z,3.53
2022-07-30T10:57:22.636Z,3.63
2022-07-30T11:00:13.872Z,3.47
2022-07-30T11:03:18.216Z,4.30
2022-07-30T11:05:50.225Z,3.53
2022-07-30T11:08:35.862Z,3.13
2022-07-30T11:11:19.750Z,3.60
2022-07-30T11:13:53.603Z,4.05
2022-07-30T11:16:23.955Z,3.33
2022-07-30T11:19:55.865Z,4.00
2022-07-30T11:22:29.699Z,3.83
2022-07-30T11:24:59.435Z,3.58
2022-07-30T11:27:41.274Z,3.75
2022-07-30T11:30:35.986Z,3.08
2022-07-30T11:33:33.141Z,3.47
2022-07-30T11:36:11.929Z,3.33
2022-07-30T11:39:05.317Z,3.30
2022-07-30T11:41:35.559Z,3.13
2022-07-30T11:44:31.843Z,3.10
2022-07-30T11:47:00.467Z,2.92
2022-07-30T11:49:36.861Z,3.15
2022-07-30T11:52:07.399Z,3.40
2022-07-30T11:54:54.494Z,2.95
2022-07-30T11:57:40.271Z,3.25
2022-07-30T12:00:09.934Z,3.05
2022-07-30T12:02:38.171Z,2.70
2022-07-30T12:05:08.055Z,2.33
2022-07-30T12:07:37.835Z,2.72
2022-07-30T12:10:17.202Z,3.10
2022-07-30T12:13:07.900Z,2.30
2022-07-30T12:15:37.796Z,2.65
2022-07-30T12:18:24.555Z,2.28
2022-07-30T12:20:59.573Z,5.50
2022-07-30T12:23:30.029Z,3.08
2022-07-30T12:25:59.627Z,2.35
2022-07-30T12:28:31.215Z,2.15
2022-07-30T12:31:00.346Z,2.80
2022-07-30T12:33:28.537Z,2.55
2022-07-30T12:35:58.432Z,2.20
2022-07-30T12:38:29.038Z,2.20
2022-07-30T12:40:59.906Z,4.03
2022-07-30T12:43:49.049Z,2.88
2022-07-30T12:46:19.261Z,2.30
2022-07-30T12:48:51.996Z,2.17
2022-07-30T12:51:21.078Z,2.60
2022-07-30T12:53:51.175Z,2.60
2022-07-30T12:56:20.853Z,3.22
2022-07-30T12:58:48.980Z,2.30
2022-07-30T13:01:19.184Z,2.60
2022-07-30T13:03:48.332Z,2.53
2022-07-30T13:06:18.450Z,2.30
2022-07-30T13:08:49.193Z,2.78
2022-07-30T13:11:19.448Z,2.45
2022-07-30T13:13:47.666Z,2.60
2022-07-30T13:16:16.312Z,2.70
2022-07-30T13:18:44.667Z,2.85
2022-07-30T13:21:12.959Z,2.70
2022-07-30T13:23:42.262Z,2.45
2022-07-30T13:26:12.374Z,2.70
2022-07-30T13:28:42.070Z,2.70
2022-07-30T13:31:11.195Z,2.75
2022-07-30T13:33:40.325Z,2.55
2022-07-30T13:36:09.285Z,2.70
2022-07-30T13:38:37.812Z,3.00
2022-07-30T13:41:06.573Z,2.78
2022-07-30T13:43:34.810Z,3.00
2022-07-30T13:46:04.887Z,2.65
2022-07-30T13:48:33.713Z,2.92
2022-07-30T13:51:03.029Z,3.10
2022-07-30T13:53:31.397Z,3.03
2022-07-30T13:56:00.240Z,2.70
2022-07-30T13:58:31.808Z,2.83
2022-07-30T14:01:07.555Z,2.90
2022-07-30T14:03:35.904Z,3.13
2022-07-30T14:06:10.570Z,3.58
2022-07-30T14:08:39.404Z,4.15
2022-07-30T14:11:07.614Z,3.38
2022-07-30T14:13:35.769Z,3.20
2022-07-30T14:16:13.824Z,3.13
2022-07-30T14:18:51.082Z,3.28
2022-07-30T14:21:19.319Z,3.55
2022-07-30T14:23:47.954Z,3.38
2022-07-30T14:26:16.187Z,3.35
2022-07-30T14:28:44.532Z,3.30
2022-07-30T14:31:14.165Z,3.20
2022-07-30T14:33:42.247Z,3.45
2022-07-30T14:36:10.559Z,3.13
2022-07-30T14:38:39.960Z,3.50
2022-07-30T14:41:08.975Z,3.40
2022-07-30T14:43:37.169Z,4.57
2022-07-30T14:46:05.403Z,3.63
2022-07-30T14:48:34.907Z,4.30
2022-07-30T14:51:15.206Z,4.32
2022-07-30T14:53:47.231Z,3.53
2022-07-30T14:56:17.661Z,4.13
2022-07-30T14:58:46.150Z,3.90
2022-07-30T15:01:16.283Z,4.18
2022-07-30T15:03:46.870Z,3.90
2022-07-30T15:06:16.142Z,3.33
2022-07-30T15:08:46.384Z,3.03
2022-07-30T15:11:14.636Z,3.60
2022-07-30T15:13:50.124Z,3.33
2022-07-30T15:16:19.013Z,3.63
2022-07-30T15:18:49.133Z,3.72
2022-07-30T15:21:17.948Z,4.05
2022-07-30T15:23:46.325Z,3.67
2022-07-30T15:26:14.536Z,3.47
2022-07-30T15:28:42.694Z,3.70
2022-07-30T15:31:10.971Z,4.00
2022-07-30T15:33:42.983Z,3.70
2022-07-30T15:36:13.265Z,4.25
2022-07-30T15:38:41.477Z,3.65
2022-07-30T15:41:13.444Z,3.88
2022-07-30T15:43:42.035Z,3.35
2022-07-30T15:46:10.093Z,3.30
2022-07-30T15:48:38.541Z,3.38
2022-07-30T15:51:06.770Z,3.60
2022-07-30T15:53:36.629Z,3.63
2022-07-30T15:56:05.228Z,3.50
2022-07-30T15:58:33.874Z,3.75
2022-07-30T16:01:02.596Z,4.35
2022-07-30T16:03:30.880Z,4.00
2022-07-30T16:05:59.204Z,4.15
2022-07-30T16:08:27.433Z,3.83
2022-07-30T16:10:57.189Z,4.40
2022-07-30T16:13:25.546Z,3.88
2022-07-30T16:15:53.673Z,3.78
2022-07-30T16:18:21.804Z,3.70
2022-07-30T16:20:51.120Z,4.10
2022-07-30T16:23:21.600Z,3.40
2022-07-30T16:25:50.046Z,3.83
2022-07-30T16:28:19.690Z,4.25
2022-07-30T16:30:50.880Z,3.35
2022-07-30T16:33:20.464Z,3.95
2022-07-30T16:35:51.022Z,4.03
2022-07-30T16:38:19.804Z,3.40
2022-07-30T16:40:48.081Z,4.00
2022-07-30T16:43:19.838Z,3.88
2022-07-30T16:45:50.525Z,3.92
2022-07-30T16:48:19.162Z,4.25
2022-07-30T16:50:47.592Z,5.10
2022-07-30T16:53:15.820Z,4.88
2022-07-30T16:55:44.615Z,4.30
2022-07-30T16:58:13.062Z,4.57
2022-07-30T17:00:41.634Z,5.22
2022-07-30T17:03:11.941Z,4.40
2022-07-30T17:05:48.244Z,4.57
2022-07-30T17:08:17.829Z,4.95
2022-07-30T17:10:46.189Z,4.60
2022-07-30T17:13:16.101Z,4.13
2022-07-30T17:15:46.777Z,4.57
2022-07-30T17:18:17.818Z,4.45
2022-07-30T17:20:46.815Z,4.88
2022-07-30T17:23:15.681Z,4.97
2022-07-30T17:25:43.978Z,4.88
2022-07-30T17:28:12.687Z,4.95
2022-07-30T17:30:41.290Z,4.95
2022-07-30T17:33:09.455Z,5.05
2022-07-30T17:35:39.065Z,4.63
2022-07-30T17:38:07.414Z,4.97
2022-07-30T17:40:35.664Z,6.20
2022-07-30T17:43:07.752Z,5.38
2022-07-30T17:45:37.547Z,5.30
2022-07-30T17:48:06.856Z,5.60
2022-07-30T17:50:36.347Z,7.15
2022-07-30T17:53:06.390Z,5.70
2022-07-30T17:55:35.629Z,7.95
2022-07-30T17:58:04.537Z,8.40
2022-07-30T18:00:34.817Z,6.85
2022-07-30T18:03:03.609Z,5.57
2022-07-30T18:05:31.886Z,5.50
2022-07-30T18:08:00.029Z,5.10
2022-07-30T18:10:29.631Z,5.18
2022-07-30T18:12:59.551Z,5.20
2022-07-30T18:15:48.819Z,5.38
2022-07-30T18:18:17.331Z,5.18
2022-07-30T18:20:48.094Z,5.38
2022-07-30T18:23:19.238Z,5.30
2022-07-30T18:25:51.294Z,5.38
2022-07-30T18:28:20.480Z,5.55
2022-07-30T18:30:49.070Z,4.95
2022-07-30T18:33:17.328Z,5.68
2022-07-30T18:35:45.992Z,5.90
2022-07-30T18:38:14.480Z,5.90
2022-07-30T18:40:42.573Z,6.18
2022-07-30T18:43:13.233Z,5.95
2022-07-30T18:45:41.432Z,6.60
2022-07-30T18:48:09.554Z,9.13
2022-07-30T18:50:37.757Z,7.18
2022-07-30T18:53:15.380Z,8.48
2022-07-30T18:55:44.186Z,6.00
2022-07-30T18:58:14.101Z,5.82
2022-07-30T19:00:44.398Z,5.40
2022-07-30T19:03:17.528Z,5.68
2022-07-30T19:05:49.855Z,5.47
2022-07-30T19:08:17.976Z,6.43
2022-07-30T19:10:46.166Z,6.00
2022-07-30T19:13:15.940Z,6.20
2022-07-30T19:15:44.303Z,6.60
2022-07-30T19:18:12.559Z,7.07
2022-07-30T19:20:40.751Z,6.70
2022-07-30T19:23:09.561Z,6.97
2022-07-30T19:25:39.936Z,7.50
2022-07-30T19:28:09.066Z,7.00
2022-07-30T19:30:38.580Z,8.43
2022-07-30T19:33:13.998Z,6.68
2022-07-30T19:35:43.444Z,7.10
2022-07-30T19:38:21.380Z,6.88
2022-07-30T19:40:50.512Z,6.97
2022-07-30T19:43:24.051Z,7.15
2022-07-30T19:45:54.056Z,7.40
2022-07-30T19:48:28.893Z,7.75
2022-07-30T19:51:00.895Z,7.28
2022-07-30T19:53:31.175Z,7.43
2022-07-30T19:56:08.180Z,8.45
2022-07-30T19:58:40.097Z,7.25
2022-07-30T20:01:12.308Z,6.70
2022-07-30T20:03:40.673Z,6.78
2022-07-30T20:06:14.710Z,6.32
2022-07-30T20:08:44.843Z,5.82
2022-07-30T20:11:21.064Z,6.22
2022-07-30T20:16:51.051Z,5.60
2022-07-30T20:19:20.166Z,6.20
2022-07-30T20:21:56.717Z,6.05
2022-07-30T20:24:25.694Z,5.68
2022-07-30T20:26:53.876Z,6.30
2022-07-30T20:29:22.007Z,6.47
2022-07-30T20:31:52.165Z,6.45
2022-07-30T20:34:25.984Z,6.97
2022-07-30T20:36:56.607Z,7.18
2022-07-30T20:39:25.312Z,6.82
2022-07-30T20:42:07.910Z,6.82
2022-07-30T20:44:38.015Z,6.10
2022-07-30T20:49:56.604Z,6.65
2022-07-30T20:52:24.785Z,5.72
2022-07-30T20:54:52.937Z,9.63
2022-07-30T20:57:57.258Z,7.75
2022-07-30T21:00:10.464Z,7.88
2022-07-30T21:02:42.076Z,7.95
2022-07-30T21:05:18.024Z,8.05
2022-07-30T21:07:52.898Z,8.48
2022-07-30T21:10:23.739Z,8.70
2022-07-30T21:13:03.033Z,9.20
2022-07-30T21:15:33.234Z,8.85
2022-07-30T21:18:03.892Z,8.85
2022-07-30T21:20:32.909Z,9.70
2022-07-30T21:23:10.148Z,8.23
2022-07-30T21:26:02.095Z,9.35
2022-07-30T21:28:28.492Z,8.25
2022-07-30T21:30:57.395Z,8.35
2022-07-30T21:33:31.707Z,7.05
2022-07-30T21:36:00.292Z,6.47
2022-07-30T21:38:28.774Z,6.63
2022-07-30T21:41:00.351Z,6.82
2022-07-30T21:43:30.556Z,7.43
2022-07-30T21:46:03.794Z,6.47
2022-07-30T21:48:36.107Z,6.80
2022-07-30T21:51:04.510Z,7.25
2022-07-30T21:53:46.049Z,6.72
2022-07-30T21:56:16.338Z,5.63
2022-07-30T21:58:46.038Z,5.35
2022-07-30T22:01:21.830Z,5.25
2022-07-30T22:04:04.502Z,5.15
2022-07-30T22:06:38.529Z,5.00
2022-07-30T22:09:18.974Z,4.72
2022-07-30T22:14:48.745Z,4.25
2022-07-30T22:17:23.670Z,3.85
2022-07-30T22:20:08.653Z,3.88
2022-07-30T22:22:40.182Z,4.03
2022-07-30T22:25:10.143Z,3.90
2022-07-30T22:27:40.163Z,4.13
2022-07-30T22:30:26.397Z,3.80
2022-07-30T22:32:54.661Z,4.18
2022-07-30T22:35:33.405Z,3.90
2022-07-30T22:38:02.963Z,3.65
2022-07-30T22:40:31.249Z,3.40
2022-07-30T22:42:59.714Z,3.90
2022-07-30T22:45:46.657Z,3.60
2022-07-30T22:48:20.709Z,3.55
2022-07-30T22:50:55.693Z,3.60
2022-07-30T22:54:02.947Z,3.80
2022-07-30T22:56:15.376Z,3.50
2022-07-30T22:58:44.893Z,3.78
2022-07-30T23:01:16.808Z,3.00
2022-07-30T23:03:45.216Z,3.88
2022-07-30T23:06:17.669Z,3.50
2022-07-30T23:08:48.808Z,3.42
2022-07-30T23:11:16.974Z,3.58
2022-07-30T23:12:19.584Z,6.43
2022-07-30T23:12:28.379Z,4.95
2022-07-30T23:13:45.117Z,3.95
2022-07-30T23:16:13.373Z,3.30
2022-07-30T23:18:41.555Z,3.30
2022-07-30T23:21:10.027Z,3.22
2022-07-30T23:23:40.147Z,3.22
2022-07-30T23:26:08.977Z,3.08
2022-07-30T23:28:37.826Z,2.92
2022-07-30T23:31:07.278Z,2.97
2022-07-30T23:33:35.391Z,2.65
2022-07-30T23:36:06.165Z,2.95
2022-07-30T23:38:34.529Z,3.33
2022-07-30T23:41:05.861Z,2.45
2022-07-30T23:43:34.020Z,2.75
2022-07-30T23:46:02.308Z,2.85
2022-07-30T23:48:31.721Z,2.88
2022-07-30T23:51:00.058Z,2.95
2022-07-30T23:53:28.275Z,3.40
2022-07-30T23:55:56.430Z,3.60
2022-07-30T23:58:26.248Z,3.33
